Time;durP1;ratioP1;P1;durP2;ratioP2;P2;SDS_P1;SDS_P2;PMS_P1;PMS_P2;Temp;Humidity;BMP_temperature;BMP_pressure;BME280_temperature;BME280_humidity;BME280_pressure;Samples;Min_cycle;Max_cycle;Signal;HPM_P1;HPM_P2
2022/12/13 00:01:52;;;;;;;48.80;30.55;;;-3.00;99.90;;;;;;5007685;28;20520;-82
2022/12/13 00:04:20;;;;;;;43.97;28.30;;;-2.90;99.90;;;;;;5007899;28;20536;-80
2022/12/13 00:06:46;;;;;;;42.53;28.05;;;-2.90;99.90;;;;;;4998366;28;20489;-81
2022/12/13 00:09:14;;;;;;;46.28;29.70;;;-2.90;99.90;;;;;;5008236;28;20772;-82
2022/12/13 00:11:40;;;;;;;43.28;28.90;;;-2.90;99.90;;;;;;5009284;28;20895;-81
2022/12/13 00:14:05;;;;;;;48.10;30.70;;;-2.90;99.90;;;;;;5011734;28;20440;-81
2022/12/13 00:16:31;;;;;;;45.17;29.73;;;-2.80;99.90;;;;;;5020225;28;20940;-76
2022/12/13 00:18:58;;;;;;;43.90;28.50;;;-2.90;99.90;;;;;;5019395;28;20919;-83
2022/12/13 00:21:30;;;;;;;46.17;28.60;;;-2.80;99.90;;;;;;5009865;28;20907;-83
2022/12/13 00:23:57;;;;;;;43.47;27.48;;;-2.80;99.90;;;;;;5028978;28;20438;-79
2022/12/13 00:26:25;;;;;;;43.85;28.52;;;-3.10;99.90;;;;;;5028535;28;20503;-81
2022/12/13 00:28:53;;;;;;;41.03;28.83;;;-3.10;99.90;;;;;;5028221;28;20431;-81
2022/12/13 00:31:20;;;;;;;48.90;29.60;;;-3.10;99.90;;;;;;4998009;28;20469;-82
2022/12/13 00:33:46;;;;;;;41.20;28.67;;;-3.00;99.90;;;;;;5009113;28;20469;-81
2022/12/13 00:36:12;;;;;;;42.43;27.83;;;-2.60;99.90;;;;;;5006690;28;20473;-80
2022/12/13 00:38:37;;;;;;;40.58;27.15;;;-3.10;99.90;;;;;;5007316;28;20485;-80
2022/12/13 00:41:17;;;;;;;41.40;27.35;;;-3.10;99.90;;;;;;5006590;28;20512;-80
2022/12/13 00:43:43;;;;;;;43.45;28.17;;;-3.10;99.90;;;;;;4990207;28;25165;-82
2022/12/13 00:46:14;;;;;;;40.20;26.75;;;-3.20;99.90;;;;;;4998331;28;20452;-80
2022/12/13 00:48:40;;;;;;;42.45;26.73;;;-3.30;99.90;;;;;;5003404;28;20439;-82
2022/12/13 00:51:07;;;;;;;44.03;27.67;;;-3.20;99.90;;;;;;5006071;28;20507;-82
2022/12/13 00:53:33;;;;;;;42.80;27.60;;;-3.10;99.90;;;;;;5006285;28;20454;-82
2022/12/13 00:56:00;;;;;;;41.35;28.23;;;-3.10;99.90;;;;;;5007455;28;20512;-82
2022/12/13 00:58:25;;;;;;;45.10;30.53;;;-3.10;99.90;;;;;;5003438;28;20527;-81
2022/12/13 01:00:51;;;;;;;42.50;28.02;;;-3.20;99.90;;;;;;5006040;28;20448;-83
2022/12/13 01:03:20;;;;;;;42.60;28.65;;;-3.20;99.90;;;;;;5007867;28;20470;-82
2022/12/13 01:05:48;;;;;;;44.42;28.52;;;-3.30;99.90;;;;;;5007623;28;20930;-81
2022/12/13 01:08:14;;;;;;;43.35;27.42;;;-3.20;99.90;;;;;;5006025;28;20421;-81
2022/12/13 01:10:44;;;;;;;37.45;25.73;;;-3.20;99.90;;;;;;5006529;28;20433;-82
2022/12/13 01:13:10;;;;;;;39.72;26.50;;;-3.20;99.90;;;;;;5011818;28;20506;-81
2022/12/13 01:15:41;;;;;;;41.77;28.40;;;-3.30;99.90;;;;;;5005876;28;20520;-81
2022/12/13 01:18:07;;;;;;;41.97;27.33;;;-3.30;99.90;;;;;;4989350;28;20800;-81
2022/12/13 01:20:33;;;;;;;41.28;26.77;;;-3.30;99.90;;;;;;5006043;28;20413;-80
2022/12/13 01:22:58;;;;;;;40.27;26.07;;;-3.30;99.90;;;;;;5009699;28;20806;-81
2022/12/13 01:25:24;;;;;;;42.57;28.27;;;-3.20;99.90;;;;;;5005337;28;20828;-81
2022/12/13 01:27:50;;;;;;;42.63;27.70;;;-3.30;99.90;;;;;;4989494;28;20997;-79
2022/12/13 01:30:15;;;;;;;42.35;27.10;;;-3.30;99.90;;;;;;5008162;28;20421;-81
2022/12/13 01:32:41;;;;;;;39.60;25.77;;;-3.30;99.90;;;;;;5019945;28;20450;-82
2022/12/13 01:35:07;;;;;;;40.53;25.80;;;-3.30;99.90;;;;;;5006121;28;20483;-79
2022/12/13 01:37:35;;;;;;;41.73;26.53;;;-3.30;99.90;;;;;;5006513;28;20516;-81
2022/12/13 01:40:04;;;;;;;41.50;26.52;;;-3.30;99.90;;;;;;5006851;28;20460;-80
2022/12/13 01:42:30;;;;;;;41.75;25.95;;;-3.40;99.90;;;;;;5007316;28;20450;-81
2022/12/13 01:44:58;;;;;;;40.63;27.17;;;-3.20;99.90;;;;;;5007421;28;20478;-83
2022/12/13 01:47:47;;;;;;;39.83;26.50;;;-3.40;99.90;;;;;;4988223;28;20567;-81
2022/12/13 01:50:24;;;;;;;40.30;27.55;;;-3.40;99.90;;;;;;4987026;28;25110;-81
2022/12/13 01:52:52;;;;;;;39.53;25.52;;;-3.30;99.90;;;;;;5006071;28;20442;-77
2022/12/13 01:55:18;;;;;;;40.63;26.70;;;-3.30;99.90;;;;;;4990361;28;20423;-77
2022/12/13 01:57:47;;;;;;;40.03;26.87;;;-3.50;99.90;;;;;;4992917;28;20882;-82
2022/12/13 02:00:13;;;;;;;39.40;25.80;;;-3.30;99.90;;;;;;5006359;28;20417;-81
2022/12/13 02:02:39;;;;;;;41.25;27.02;;;-3.40;99.90;;;;;;5006863;28;20921;-83
2022/12/13 02:05:49;;;;;;;39.80;25.55;;;-3.40;99.90;;;;;;5083405;22;20519;-81
2022/12/13 02:08:15;;;;;;;40.03;27.13;;;-3.40;99.90;;;;;;4983352;28;27250;-78
2022/12/13 02:10:42;;;;;;;41.20;26.40;;;-3.30;99.90;;;;;;5007854;28;20429;-81
2022/12/13 02:13:08;;;;;;;42.45;28.00;;;-3.30;99.90;;;;;;5007625;28;20425;-80
2022/12/13 02:16:16;;;;;;;41.03;26.25;;;-3.40;99.90;;;;;;5006829;28;20409;-81
2022/12/13 02:18:55;;;;;;;37.92;25.98;;;-3.50;99.90;;;;;;4994479;28;20496;-80
2022/12/13 02:21:21;;;;;;;42.08;26.83;;;-3.50;99.90;;;;;;5006423;28;20477;-78
2022/12/13 02:24:39;;;;;;;39.77;26.10;;;-3.50;99.90;;;;;;5011288;28;20431;-81
2022/12/13 02:27:21;;;;;;;41.38;26.52;;;-3.60;99.90;;;;;;4994421;28;20962;-80
2022/12/13 02:30:12;;;;;;;37.33;24.73;;;-3.50;99.90;;;;;;5008120;28;20472;-77
2022/12/13 02:32:56;;;;;;;37.37;24.07;;;-3.60;99.90;;;;;;5026870;28;25113;-81
2022/12/13 02:35:34;;;;;;;36.70;24.17;;;-3.70;99.90;;;;;;5010941;28;20428;-82
2022/12/13 02:38:10;;;;;;;36.10;25.23;;;-2.80;99.90;;;;;;4995044;28;20452;-80
2022/12/13 02:41:10;;;;;;;39.67;25.73;;;-3.60;99.90;;;;;;5000835;28;20425;-80
2022/12/13 02:43:49;;;;;;;36.88;23.17;;;-3.60;99.90;;;;;;4989708;28;20457;-83
2022/12/13 02:46:21;;;;;;;41.70;26.83;;;-3.60;99.90;;;;;;5022369;28;20443;-79
2022/12/13 02:48:50;;;;;;;39.40;24.02;;;-3.50;99.90;;;;;;5017632;28;20919;-80
2022/12/13 02:51:16;;;;;;;37.13;25.83;;;-3.50;99.90;;;;;;4994800;28;21041;-80
2022/12/13 02:53:43;;;;;;;37.88;24.88;;;-3.60;99.90;;;;;;4997508;28;20433;-79
2022/12/13 02:56:08;;;;;;;37.85;25.88;;;-3.70;99.90;;;;;;4993560;28;20430;-81
2022/12/13 02:58:39;;;;;;;37.33;26.75;;;-3.70;99.90;;;;;;5002251;28;20422;-81
2022/12/13 03:01:14;;;;;;;41.60;26.67;;;-3.80;99.90;;;;;;4990414;28;20429;-81
2022/12/13 03:03:50;;;;;;;39.60;25.23;;;-3.90;99.90;;;;;;5005878;28;21184;-83
2022/12/13 03:06:53;;;;;;;37.38;26.95;;;-4.10;99.90;;;;;;5016524;28;20466;-80
2022/12/13 03:09:54;;;;;;;40.63;26.67;;;-3.80;99.90;;;;;;5024338;28;25126;-80
2022/12/13 03:15:38;;;;;;;40.53;25.42;;;-3.70;99.90;;;;;;5024916;28;20555;-81
2022/12/13 03:18:15;;;;;;;42.15;27.05;;;-3.80;99.90;;;;;;5010696;28;20444;-82
2022/12/13 03:20:52;;;;;;;37.28;25.25;;;-3.60;99.90;;;;;;5014304;28;25120;-81
2022/12/13 03:23:18;;;;;;;39.80;25.83;;;-3.60;99.90;;;;;;5018483;28;20526;-79
2022/12/13 03:25:48;;;;;;;38.63;24.20;;;-3.70;99.90;;;;;;5011078;28;20469;-81
2022/12/13 03:28:13;;;;;;;42.72;26.83;;;-3.80;99.90;;;;;;5026007;28;20447;-81
2022/12/13 03:30:39;;;;;;;42.17;27.17;;;-3.70;99.90;;;;;;5010495;28;20416;-80
2022/12/13 03:33:05;;;;;;;37.20;25.30;;;-3.70;99.90;;;;;;5010276;28;20421;-81
2022/12/13 03:35:31;;;;;;;37.05;24.25;;;-3.80;99.90;;;;;;4996383;28;20444;-79
2022/12/13 03:37:58;;;;;;;45.15;26.52;;;-3.70;99.90;;;;;;5017387;28;20428;-81
2022/12/13 03:40:24;;;;;;;41.22;25.38;;;-3.80;99.90;;;;;;5010574;28;20818;-80
2022/12/13 03:42:49;;;;;;;37.75;25.10;;;-3.80;99.90;;;;;;5010756;28;20436;-79
2022/12/13 03:45:17;;;;;;;38.50;25.23;;;-3.70;99.90;;;;;;5008556;28;20418;-83
2022/12/13 03:47:43;;;;;;;38.50;25.00;;;-3.60;99.90;;;;;;5010845;28;20636;-80
2022/12/13 03:50:09;;;;;;;37.10;24.90;;;-3.80;99.90;;;;;;4993111;28;20508;-81
2022/12/13 03:52:34;;;;;;;36.60;23.33;;;-3.70;99.90;;;;;;5008714;28;20433;-82
2022/12/13 03:55:00;;;;;;;41.30;25.67;;;-3.70;99.90;;;;;;5009132;28;20432;-82
2022/12/13 03:57:26;;;;;;;37.27;24.30;;;-3.70;99.90;;;;;;5010333;28;20411;-82
2022/12/13 03:59:51;;;;;;;36.70;24.13;;;-3.70;99.90;;;;;;5010102;28;20403;-80
2022/12/13 04:02:17;;;;;;;38.10;24.07;;;-3.80;99.90;;;;;;5006005;28;20503;-82
2022/12/13 04:04:43;;;;;;;42.15;25.80;;;-3.70;99.90;;;;;;5008817;28;20854;-81
2022/12/13 04:07:08;;;;;;;35.60;23.00;;;-3.80;99.90;;;;;;5001136;28;20438;-77
2022/12/13 04:09:34;;;;;;;34.97;24.10;;;-3.70;99.90;;;;;;5018054;28;20456;-79
2022/12/13 04:14:43;;;;;;;38.35;23.52;;;-3.70;99.90;;;;;;5010312;28;20424;-82
2022/12/13 04:17:09;;;;;;;37.57;25.13;;;-3.70;99.90;;;;;;5008214;28;20540;-81
2022/12/13 04:19:35;;;;;;;39.92;24.95;;;-3.80;99.90;;;;;;5009399;28;20492;-81
2022/12/13 04:22:00;;;;;;;35.28;23.08;;;-3.80;99.90;;;;;;5009831;28;20491;-81
2022/12/13 04:24:26;;;;;;;33.88;23.95;;;-3.80;99.90;;;;;;5007736;28;20838;-82
2022/12/13 04:26:51;;;;;;;36.03;25.17;;;-3.80;99.90;;;;;;5003477;28;20465;-81
2022/12/13 04:29:18;;;;;;;36.47;23.48;;;-3.90;99.90;;;;;;4993257;28;20430;-77
2022/12/13 04:31:43;;;;;;;36.50;23.67;;;-3.80;99.90;;;;;;5011170;28;20425;-81
2022/12/13 04:34:09;;;;;;;35.13;23.95;;;-3.90;99.90;;;;;;5006665;28;20444;-82
2022/12/13 04:36:34;;;;;;;35.50;23.05;;;-3.90;99.90;;;;;;4995017;28;20413;-76
2022/12/13 04:39:04;;;;;;;37.08;22.50;;;-3.80;99.90;;;;;;5009186;28;20842;-81
2022/12/13 04:41:36;;;;;;;35.75;22.45;;;-3.90;99.90;;;;;;5009996;28;20489;-80
2022/12/13 04:44:02;;;;;;;39.72;24.73;;;-3.70;99.90;;;;;;5009575;28;20451;-82
2022/12/13 04:46:28;;;;;;;32.25;22.35;;;-3.60;99.90;;;;;;5006127;28;20430;-81
2022/12/13 04:48:54;;;;;;;32.75;21.02;;;-3.80;99.90;;;;;;5008430;28;20495;-81
2022/12/13 04:51:20;;;;;;;37.97;22.80;;;-3.80;99.90;;;;;;5005922;28;20511;-81
2022/12/13 04:53:45;;;;;;;37.47;23.67;;;-3.90;99.90;;;;;;5005119;28;20494;-82
2022/12/13 04:56:11;;;;;;;31.83;21.60;;;-3.90;99.90;;;;;;5006831;28;20416;-80
2022/12/13 04:58:37;;;;;;;35.17;23.55;;;-3.90;99.90;;;;;;5006210;28;20455;-81
2022/12/13 05:01:07;;;;;;;37.58;22.75;;;-4.10;99.90;;;;;;4999172;28;20810;-81
2022/12/13 05:03:33;;;;;;;34.20;22.15;;;-4.10;99.90;;;;;;5004501;28;20792;-79
2022/12/13 05:05:58;;;;;;;34.30;24.17;;;-4.10;99.90;;;;;;4989141;28;20425;-80
2022/12/13 05:08:24;;;;;;;39.28;25.83;;;-4.10;99.90;;;;;;5020006;28;20493;-78
2022/12/13 05:10:50;;;;;;;37.45;24.23;;;-4.00;99.90;;;;;;5007891;28;20447;-79
2022/12/13 05:13:16;;;;;;;36.45;23.42;;;-3.90;99.90;;;;;;5014346;28;20434;-80
2022/12/13 05:15:41;;;;;;;31.88;22.52;;;-4.00;99.90;;;;;;5008781;28;20430;-81
2022/12/13 05:18:07;;;;;;;35.53;23.73;;;-3.90;99.90;;;;;;5016733;28;20499;-80
2022/12/13 05:20:34;;;;;;;35.97;22.73;;;-4.10;99.90;;;;;;4990299;28;20413;-77
2022/12/13 05:23:00;;;;;;;33.05;22.17;;;-4.10;99.90;;;;;;5005527;28;20437;-82
2022/12/13 05:25:26;;;;;;;35.20;23.20;;;-4.00;99.90;;;;;;5007168;28;20456;-80
2022/12/13 05:27:52;;;;;;;31.15;22.25;;;-4.10;99.90;;;;;;5005364;28;20432;-81
2022/12/13 05:30:19;;;;;;;36.13;24.83;;;-4.00;99.90;;;;;;5008277;28;20980;-80
2022/12/13 05:32:45;;;;;;;33.80;23.92;;;-4.10;99.90;;;;;;5008934;28;20429;-82
2022/12/13 05:35:12;;;;;;;36.10;22.83;;;-4.10;99.90;;;;;;5008953;28;20409;-81
2022/12/13 05:37:38;;;;;;;32.90;22.13;;;-4.20;99.90;;;;;;5007512;28;21069;-81
2022/12/13 05:40:04;;;;;;;32.55;22.88;;;-4.30;99.90;;;;;;5008528;28;20420;-83
2022/12/13 05:42:30;;;;;;;32.92;22.40;;;-4.20;99.90;;;;;;5017554;28;20493;-81
2022/12/13 05:44:56;;;;;;;38.58;22.60;;;-4.30;99.90;;;;;;5010134;28;20957;-81
2022/12/13 05:47:21;;;;;;;34.93;22.83;;;-4.20;99.90;;;;;;5000403;28;20458;-82
2022/12/13 05:49:47;;;;;;;42.43;25.50;;;-4.30;99.90;;;;;;5014065;28;20443;-81
2022/12/13 05:52:20;;;;;;;38.60;25.63;;;-4.30;99.90;;;;;;5018495;28;20422;-81
2022/12/13 05:54:46;;;;;;;39.13;25.55;;;-4.20;99.90;;;;;;5026680;28;20445;-81
2022/12/13 05:57:12;;;;;;;37.87;23.27;;;-4.30;99.90;;;;;;5011040;28;20522;-83
2022/12/13 05:59:37;;;;;;;39.10;23.88;;;-4.20;99.90;;;;;;5012641;28;20408;-79
2022/12/13 06:02:03;;;;;;;35.80;23.55;;;-4.10;99.90;;;;;;5020009;28;20758;-82
2022/12/13 06:04:29;;;;;;;34.80;24.17;;;-4.20;99.90;;;;;;5018872;28;20474;-76
2022/12/13 06:06:54;;;;;;;34.42;24.10;;;-4.20;99.90;;;;;;5012231;28;20428;-81
2022/12/13 06:09:21;;;;;;;35.80;23.87;;;-4.10;99.90;;;;;;5012985;28;20408;-81
2022/12/13 06:11:47;;;;;;;36.78;22.50;;;-4.10;99.90;;;;;;5031164;28;20549;-81
2022/12/13 06:14:14;;;;;;;31.73;21.92;;;-4.00;99.90;;;;;;5015093;28;20461;-80
2022/12/13 06:16:39;;;;;;;32.08;21.27;;;-4.10;99.90;;;;;;5015977;28;20553;-80
2022/12/13 06:19:05;;;;;;;32.63;21.63;;;-4.10;99.90;;;;;;5011857;28;20432;-79
2022/12/13 06:21:32;;;;;;;35.83;21.93;;;-4.10;99.90;;;;;;5002272;28;20510;-78
2022/12/13 06:23:57;;;;;;;37.23;21.67;;;-4.10;99.90;;;;;;5006243;28;20443;-79
2022/12/13 06:26:23;;;;;;;35.83;22.92;;;-4.20;99.90;;;;;;5015091;28;20400;-80
2022/12/13 06:28:48;;;;;;;35.22;23.15;;;-4.10;99.90;;;;;;5000364;28;20441;-81
2022/12/13 06:31:14;;;;;;;34.60;22.80;;;-4.20;99.90;;;;;;5008525;28;20554;-80
2022/12/13 06:33:40;;;;;;;32.38;21.88;;;-4.20;99.90;;;;;;5011500;28;20869;-83
2022/12/13 06:36:06;;;;;;;32.45;21.23;;;-4.20;99.90;;;;;;5011918;28;20969;-83
2022/12/13 06:38:32;;;;;;;32.95;22.02;;;-4.20;99.90;;;;;;5005126;28;20565;-82
2022/12/13 06:41:12;;;;;;;31.50;20.83;;;-4.10;99.90;;;;;;5009292;28;20491;-82
2022/12/13 06:43:44;;;;;;;31.85;21.15;;;-4.20;99.90;;;;;;4998927;28;20696;-82
2022/12/13 06:46:10;;;;;;;34.88;21.60;;;-4.20;99.90;;;;;;5006719;28;20429;-81
2022/12/13 06:48:36;;;;;;;33.75;23.15;;;-4.10;99.90;;;;;;5011899;28;20425;-83
2022/12/13 06:51:03;;;;;;;35.58;23.23;;;-4.20;99.90;;;;;;5011098;28;20926;-82
2022/12/13 06:53:30;;;;;;;37.72;23.27;;;-4.10;99.90;;;;;;5010249;28;20499;-82
2022/12/13 06:55:55;;;;;;;34.72;22.75;;;-4.20;99.90;;;;;;5010022;28;20439;-82
2022/12/13 06:58:21;;;;;;;34.13;22.73;;;-4.20;99.90;;;;;;5011612;28;20417;-82
2022/12/13 07:00:47;;;;;;;32.13;22.50;;;-4.20;99.90;;;;;;5027517;28;20409;-81
2022/12/13 07:03:14;;;;;;;33.47;24.02;;;-4.10;99.90;;;;;;5000522;28;20972;-82
2022/12/13 07:05:40;;;;;;;33.40;21.10;;;-4.20;99.90;;;;;;4991610;28;20522;-82
2022/12/13 07:08:06;;;;;;;34.93;22.53;;;-4.30;99.90;;;;;;5015255;28;20510;-83
2022/12/13 07:10:32;;;;;;;32.28;22.15;;;-3.80;99.90;;;;;;5031269;28;20414;-81
2022/12/13 07:12:58;;;;;;;33.13;22.63;;;-4.30;99.90;;;;;;5015551;28;20425;-83
2022/12/13 07:15:23;;;;;;;37.03;23.17;;;-4.30;99.90;;;;;;5027870;28;20427;-78
2022/12/13 07:17:50;;;;;;;31.37;20.00;;;-4.20;99.90;;;;;;5023609;28;20422;-83
2022/12/13 07:20:17;;;;;;;36.50;22.27;;;-4.00;99.90;;;;;;5025741;28;20490;-81
2022/12/13 07:22:43;;;;;;;32.15;21.25;;;-4.30;99.90;;;;;;5013233;28;20423;-79
2022/12/13 07:25:09;;;;;;;32.13;22.08;;;-4.10;99.90;;;;;;5027163;28;20487;-80
2022/12/13 07:27:35;;;;;;;34.17;21.17;;;-4.20;99.90;;;;;;5002857;28;20420;-82
2022/12/13 07:30:01;;;;;;;34.83;22.77;;;-4.20;99.90;;;;;;5011262;28;20861;-79
2022/12/13 07:32:27;;;;;;;35.40;23.55;;;-4.10;99.90;;;;;;5010420;28;20425;-79
2022/12/13 07:34:53;;;;;;;36.58;25.80;;;-4.10;99.90;;;;;;5010037;28;20416;-80
2022/12/13 07:37:18;;;;;;;35.80;23.90;;;-4.20;99.90;;;;;;5031993;28;20504;-83
2022/12/13 07:39:44;;;;;;;37.00;23.83;;;-4.20;99.90;;;;;;5009453;28;20424;-82
2022/12/13 07:42:10;;;;;;;39.83;26.35;;;-4.20;99.90;;;;;;5022710;28;20436;-82
2022/12/13 07:44:36;;;;;;;37.05;23.88;;;-4.20;99.90;;;;;;5010583;28;20511;-83
2022/12/13 07:47:02;;;;;;;36.13;23.70;;;-4.10;99.90;;;;;;5009284;28;20791;-82
2022/12/13 07:49:27;;;;;;;33.75;23.48;;;-4.30;99.90;;;;;;5015412;28;20418;-85
2022/12/13 07:51:53;;;;;;;33.95;23.02;;;-4.20;99.90;;;;;;5009780;28;20500;-79
2022/12/13 07:54:19;;;;;;;39.63;23.63;;;-4.30;99.90;;;;;;4993158;28;20413;-83
2022/12/13 07:56:44;;;;;;;38.20;25.23;;;-4.20;99.90;;;;;;5010379;28;20428;-82
2022/12/13 07:59:10;;;;;;;34.97;22.73;;;-4.10;99.90;;;;;;4992613;28;20505;-79
2022/12/13 08:01:36;;;;;;;37.20;25.27;;;-4.10;99.90;;;;;;5022041;28;20445;-87
2022/12/13 08:04:02;;;;;;;33.47;23.83;;;-4.10;99.90;;;;;;5009312;28;20783;-81
2022/12/13 08:06:28;;;;;;;34.65;22.52;;;-4.00;99.90;;;;;;5004534;28;20518;-81
2022/12/13 08:08:55;;;;;;;34.00;23.00;;;-4.00;99.90;;;;;;4998416;28;20532;-79
2022/12/13 08:11:20;;;;;;;37.67;23.38;;;-3.90;99.90;;;;;;5009195;28;20474;-80
2022/12/13 08:13:46;;;;;;;36.78;24.95;;;-4.00;99.90;;;;;;5010552;28;20409;-77
2022/12/13 08:16:16;;;;;;;36.25;21.98;;;-3.90;99.90;;;;;;5010004;28;20895;-82
2022/12/13 08:18:43;;;;;;;36.25;23.02;;;-3.80;99.90;;;;;;5009462;28;20457;-82
2022/12/13 08:21:09;;;;;;;36.42;24.55;;;-3.80;99.90;;;;;;5009521;28;20421;-83
2022/12/13 08:23:35;;;;;;;33.83;21.05;;;-3.70;99.90;;;;;;5007726;28;20938;-82
2022/12/13 08:26:04;;;;;;;34.53;22.75;;;-3.60;99.90;;;;;;5007789;28;21704;-83
2022/12/13 08:28:32;;;;;;;36.40;23.30;;;-3.60;99.90;;;;;;5009286;28;20471;-83
2022/12/13 08:31:07;;;;;;;33.37;22.50;;;-3.60;99.90;;;;;;5009445;28;20428;-80
2022/12/13 08:33:34;;;;;;;36.08;23.27;;;-3.60;99.90;;;;;;5009159;28;20408;-83
2022/12/13 08:36:17;;;;;;;33.28;23.40;;;-3.60;99.90;;;;;;5009265;28;20420;-83
2022/12/13 08:38:44;;;;;;;35.22;24.10;;;-3.50;99.90;;;;;;4990883;28;20421;-83
2022/12/13 08:41:10;;;;;;;37.97;23.55;;;-3.40;99.90;;;;;;5007540;28;20415;-82
2022/12/13 08:43:35;;;;;;;39.53;24.17;;;-3.30;99.90;;;;;;5009237;28;20439;-82
2022/12/13 08:46:01;;;;;;;38.75;24.50;;;-3.30;99.90;;;;;;5008976;28;20763;-80
2022/12/13 08:48:27;;;;;;;37.60;24.97;;;-3.20;99.90;;;;;;4989679;28;20423;-76
2022/12/13 08:50:53;;;;;;;35.13;23.98;;;-3.20;99.90;;;;;;5021877;28;20766;-82
2022/12/13 08:53:19;;;;;;;32.63;23.90;;;-3.10;99.90;;;;;;5027649;28;20921;-82
2022/12/13 08:55:45;;;;;;;38.20;24.85;;;-3.00;99.90;;;;;;4999251;28;20434;-80
2022/12/13 08:58:11;;;;;;;35.03;22.97;;;-3.00;99.90;;;;;;5007404;28;20487;-83
2022/12/13 09:00:37;;;;;;;38.40;24.35;;;-3.00;99.90;;;;;;5006303;28;20425;-84
2022/12/13 09:03:04;;;;;;;36.28;24.35;;;-2.90;99.90;;;;;;5007864;28;20443;-83
2022/12/13 09:05:32;;;;;;;35.15;23.80;;;-2.80;99.90;;;;;;5008203;28;20474;-78
2022/12/13 09:07:57;;;;;;;35.47;23.88;;;-3.00;99.90;;;;;;5001970;28;20763;-78
2022/12/13 09:10:24;;;;;;;34.60;25.42;;;-2.80;99.90;;;;;;5002774;28;20538;-80
2022/12/13 09:12:50;;;;;;;38.90;25.80;;;-2.60;99.90;;;;;;5007471;28;21044;-80
2022/12/13 09:15:16;;;;;;;36.20;24.65;;;-2.50;99.90;;;;;;5008816;28;20424;-82
2022/12/13 09:17:42;;;;;;;36.65;25.13;;;-2.50;99.90;;;;;;5008684;28;20421;-79
2022/12/13 09:20:10;;;;;;;37.03;24.73;;;-2.50;99.90;;;;;;5007663;28;20580;-81
2022/12/13 09:22:36;;;;;;;42.20;25.80;;;-2.50;99.90;;;;;;5011504;28;20518;-78
2022/12/13 09:25:03;;;;;;;39.15;26.42;;;-2.20;99.90;;;;;;5005344;28;20445;-77
2022/12/13 09:27:30;;;;;;;36.55;25.30;;;-2.20;99.90;;;;;;4988707;28;20398;-81
2022/12/13 09:29:56;;;;;;;36.75;25.02;;;-2.20;99.90;;;;;;5004341;28;20540;-85
2022/12/13 09:32:23;;;;;;;37.78;25.90;;;-2.00;99.90;;;;;;5023360;28;20980;-82
2022/12/13 09:34:49;;;;;;;38.35;25.42;;;-2.00;99.90;;;;;;5014058;28;20472;-86
2022/12/13 09:37:16;;;;;;;41.83;26.17;;;-1.90;99.90;;;;;;5016229;28;20436;-85
2022/12/13 09:39:41;;;;;;;40.17;26.92;;;-1.80;99.90;;;;;;5017387;28;20400;-76
2022/12/13 09:42:26;;;;;;;38.43;26.67;;;-1.60;99.90;;;;;;5027030;28;20530;-88
2022/12/13 09:44:56;;;;;;;35.63;25.02;;;-1.60;99.90;;;;;;4992165;28;25119;-82
2022/12/13 09:47:33;;;;;;;39.80;25.20;;;-1.50;99.90;;;;;;4997126;28;20506;-86
2022/12/13 09:50:01;;;;;;;37.35;27.48;;;-1.60;99.90;;;;;;5002821;28;20491;-83
2022/12/13 09:52:34;;;;;;;39.30;26.43;;;-1.30;99.90;;;;;;4990519;28;20441;-86
2022/12/13 09:54:59;;;;;;;32.30;24.23;;;-1.40;99.90;;;;;;5011804;28;25104;-87
2022/12/13 09:57:28;;;;;;;38.65;26.73;;;-1.50;99.90;;;;;;5008313;28;20433;-83
2022/12/13 09:59:54;;;;;;;36.50;27.20;;;-1.40;99.90;;;;;;5009212;28;20433;-83
2022/12/13 10:02:27;;;;;;;37.33;26.15;;;-1.30;99.90;;;;;;5020370;28;20428;-82
2022/12/13 10:04:56;;;;;;;35.20;23.58;;;-1.30;99.90;;;;;;4999104;28;20451;-81
2022/12/13 10:07:23;;;;;;;36.05;25.08;;;-1.10;99.90;;;;;;5006746;28;20451;-87
2022/12/13 10:09:58;;;;;;;36.03;25.00;;;-1.10;99.90;;;;;;5003429;28;20470;-82
2022/12/13 10:12:24;;;;;;;37.30;26.17;;;-1.00;99.90;;;;;;5014657;28;20461;-82
2022/12/13 10:14:58;;;;;;;36.67;26.25;;;-0.90;99.90;;;;;;4991119;28;20925;-82
2022/12/13 10:17:30;;;;;;;35.63;25.52;;;-1.00;99.90;;;;;;5004092;28;20504;-81
2022/12/13 10:19:56;;;;;;;37.22;25.70;;;-0.60;99.90;;;;;;4989244;28;20454;-81
2022/12/13 10:22:22;;;;;;;37.33;26.45;;;-0.90;99.90;;;;;;5004821;28;20487;-77
2022/12/13 10:24:54;;;;;;;38.85;26.40;;;-0.20;99.90;;;;;;5006800;28;20432;-75
2022/12/13 10:27:33;;;;;;;35.83;24.77;;;-1.00;99.90;;;;;;5003949;28;20434;-82
2022/12/13 10:30:05;;;;;;;33.65;25.05;;;-0.90;99.90;;;;;;4991753;28;20523;-74
2022/12/13 10:32:40;;;;;;;36.88;25.20;;;-0.80;99.90;;;;;;5017239;28;20466;-81
2022/12/13 10:35:21;;;;;;;32.80;23.75;;;-0.80;99.90;;;;;;5017903;28;20483;-81
2022/12/13 10:37:47;;;;;;;36.67;25.85;;;-0.80;99.90;;;;;;5005145;28;20539;-77
2022/12/13 10:40:35;;;;;;;35.38;25.80;;;-0.90;99.90;;;;;;5005019;28;20517;-81
2022/12/13 10:43:20;;;;;;;43.92;25.27;;;-0.80;99.90;;;;;;5007422;28;25122;-79
2022/12/13 10:45:55;;;;;;;36.92;25.63;;;-0.60;99.90;;;;;;5010029;28;20408;-81
2022/12/13 10:48:47;;;;;;;35.92;24.95;;;-0.60;99.90;;;;;;5007242;28;20847;-82
2022/12/13 10:51:17;;;;;;;35.63;25.53;;;-0.60;99.90;;;;;;5006196;28;20447;-81
2022/12/13 10:53:59;;;;;;;33.47;24.57;;;-0.50;99.90;;;;;;5040542;28;20437;-81
2022/12/13 10:56:59;;;;;;;34.88;25.50;;;-0.50;99.90;;;;;;5023129;28;20475;-81
2022/12/13 10:59:36;;;;;;;42.22;27.05;;;-0.20;99.90;;;;;;4990941;28;20425;-82
2022/12/13 11:02:27;;;;;;;32.10;23.80;;;-0.40;99.90;;;;;;5004419;28;20424;-82
2022/12/13 11:04:53;;;;;;;34.25;25.63;;;-0.40;99.90;;;;;;5017950;28;20415;-75
2022/12/13 11:07:26;;;;;;;36.47;25.08;;;-0.40;99.90;;;;;;5008064;28;20432;-82
2022/12/13 11:09:52;;;;;;;35.25;25.10;;;-0.30;99.90;;;;;;5008413;28;20428;-82
2022/12/13 11:12:22;;;;;;;33.75;22.95;;;-0.20;99.90;;;;;;5006867;28;20437;-76
2022/12/13 11:15:02;;;;;;;31.50;22.92;;;-0.40;99.90;;;;;;5009169;28;20452;-76
2022/12/13 11:17:31;;;;;;;31.80;22.27;;;-0.20;99.90;;;;;;5007800;28;20433;-89
2022/12/13 11:20:03;;;;;;;30.40;23.10;;;-0.10;99.90;;;;;;5013457;28;20505;-90
2022/12/13 11:22:34;;;;;;;32.38;23.45;;;-0.10;99.90;;;;;;5009110;28;20515;-84
2022/12/13 11:25:22;;;;;;;32.43;22.43;;;0.00;99.90;;;;;;4997688;28;20480;-85
2022/12/13 11:28:00;;;;;;;32.70;21.92;;;-0.10;99.90;;;;;;4993997;28;20500;-81
2022/12/13 11:30:34;;;;;;;28.53;22.03;;;0.00;99.90;;;;;;5010336;28;20436;-82
2022/12/13 11:33:00;;;;;;;30.63;22.02;;;0.00;99.90;;;;;;5009075;28;20459;-81
2022/12/13 11:35:30;;;;;;;31.17;20.97;;;0.00;99.90;;;;;;5015870;28;20515;-85
2022/12/13 11:38:34;;;;;;;31.83;21.37;;;0.10;99.90;;;;;;5031291;28;20463;-76
2022/12/13 11:41:10;;;;;;;30.50;22.13;;;0.00;99.90;;;;;;5025074;28;20482;-77
2022/12/13 11:44:04;;;;;;;31.30;22.63;;;0.10;99.90;;;;;;5022903;28;20788;-81
2022/12/13 11:46:39;;;;;;;33.47;24.70;;;0.10;99.90;;;;;;5015005;28;20428;-79
2022/12/13 11:49:18;;;;;;;30.80;21.75;;;0.20;99.90;;;;;;5025246;28;20922;-77
2022/12/13 11:51:54;;;;;;;28.65;20.92;;;0.20;99.90;;;;;;5023900;28;20438;-84
2022/12/13 11:54:44;;;;;;;29.63;20.42;;;0.40;99.90;;;;;;5019822;28;20437;-74
2022/12/13 11:57:25;;;;;;;30.55;22.52;;;0.40;99.90;;;;;;5012889;28;20843;-82
2022/12/13 12:00:09;;;;;;;26.50;21.23;;;0.40;99.90;;;;;;5033782;28;20421;-83
2022/12/13 12:02:40;;;;;;;31.85;21.73;;;0.40;99.90;;;;;;5000256;28;20436;-86
2022/12/13 12:05:27;;;;;;;30.23;20.83;;;0.40;99.90;;;;;;5013723;28;20496;-88
2022/12/13 12:08:07;;;;;;;27.00;19.98;;;0.50;99.90;;;;;;5025570;28;20413;-85
2022/12/13 12:10:37;;;;;;;26.98;19.05;;;0.50;99.90;;;;;;4989719;28;20566;-86
2022/12/13 12:13:12;;;;;;;26.20;19.00;;;0.40;99.90;;;;;;5004616;28;20421;-83
2022/12/13 12:15:46;;;;;;;30.77;21.15;;;0.50;99.90;;;;;;5009055;28;20504;-84
2022/12/13 12:18:16;;;;;;;25.77;18.77;;;0.50;99.90;;;;;;5008873;28;20460;-84
2022/12/13 12:20:51;;;;;;;27.10;20.70;;;0.60;99.90;;;;;;5024547;28;20440;-87
2022/12/13 12:23:20;;;;;;;26.55;19.92;;;0.70;99.90;;;;;;5019944;28;20445;-80
2022/12/13 12:25:52;;;;;;;28.17;20.50;;;0.70;99.90;;;;;;4993839;28;20422;-73
2022/12/13 12:28:41;;;;;;;30.92;20.95;;;0.60;99.90;;;;;;5005829;28;20469;-80
2022/12/13 12:31:28;;;;;;;26.70;19.42;;;0.70;99.90;;;;;;5008305;28;20831;-85
2022/12/13 12:34:05;;;;;;;25.35;18.75;;;0.80;99.90;;;;;;4983810;28;20436;-83
2022/12/13 12:37:01;;;;;;;25.38;18.65;;;0.70;99.90;;;;;;5004937;28;20444;-77
2022/12/13 12:40:07;;;;;;;27.83;18.70;;;0.80;99.90;;;;;;4997599;28;20425;-84
2022/12/13 12:42:35;;;;;;;27.55;19.13;;;0.90;99.90;;;;;;5023288;28;20488;-82
2022/12/13 12:45:16;;;;;;;23.87;18.50;;;0.80;99.90;;;;;;5007198;28;20525;-82
2022/12/13 12:51:38;;;;;;;25.95;19.33;;;1.00;99.90;;;;;;4994219;28;20416;-82
2022/12/13 12:55:02;;;;;;;25.75;19.13;;;0.90;99.90;;;;;;4990566;28;20530;-84